Startpagina
METAR-TAF:

METAR-TAF

Vliegvelden :

Sliač, Slowakije

breedte: 48-38-17N, lengte: 019-08-03E, hoogte: 318 m

Actueel weer

Dit bericht is 17 minuten geleden gemaakt, om 00:30 UTC
Wind 4 kt uit het noordnoordoosten
Temperatuur -1°C
Vochtigheid 64%
Druk 1016 hPa
Zicht 10 km of meer
Verspreide wolken op 2200 ft

METAR: LZSL 220030Z 02004KT 9999 SCT022 M01/M07 Q1016

Tijdstip: 01:47 (00:47 UTC)

Verwachting

Dit bericht is 1 uur en het 47 minuten geleden gemaakt, om 23:00 UTC
Verwachting geldig van 22 om 00 UTC tot 22 om 09 UTC
Wind 6 kt uit het noorden
Zicht 10 km of meer
Verspreide wolken op 2500 ft
Verspreide wolken op 10000 ft
Kans 40% :
Tijdelijke
van 22 om 00 UTC tot 22 om 02 UTC
Zicht: 4000 m
Gebroken wolken op 1000 ft
nevel
Tijdelijke
van 22 om 07 UTC tot 22 om 09 UTC
Wind 10 kt uit het noorden

TAF: LZSL 212300Z 2200/2209 35006KT 9999 SCT025 SCT100 PROB40 TEMPO 2200/2202 4000 BR BKN010 TEMPO 2207/2209 01010KT

Waarnemingen en weersverwachtingen van meer dan 4000 vliegvelden (METAR en TAF).

De beschikbare stations zijn de gele en rode punten op de kaart.

Ga met uw muis naar het station om de naam te zien.

Klik dan om waarnemingen en weersverwachtingen te zien.

kaart wijzigen: klik op de groene knoppen met een zwart kruis om in te zoomen, op de groene knop met een streepje om uit te zoomen of op de groene pijlen voor aangrenzende kaarten.


METAR-TAF: